sensor_id;sensor_type;location;lat;lon;timestamp;temperature;humidity
15636;DHT22;7917;50.818;6.972;2023-01-26T00:00:17;-0.40;99.90
15636;DHT22;7917;50.818;6.972;2023-01-26T00:02:49;-0.40;99.90
15636;DHT22;7917;50.818;6.972;2023-01-26T00:05:55;-0.40;99.90
15636;DHT22;7917;50.818;6.972;2023-01-26T00:08:22;-0.50;99.90
15636;DHT22;7917;50.818;6.972;2023-01-26T00:11:06;-0.40;99.90
15636;DHT22;7917;50.818;6.972;2023-01-26T00:13:42;-0.50;99.90
15636;DHT22;7917;50.818;6.972;2023-01-26T00:16:16;-0.50;99.90
15636;DHT22;7917;50.818;6.972;2023-01-26T00:18:57;-0.50;99.90
15636;DHT22;7917;50.818;6.972;2023-01-26T00:21:34;-0.50;99.90
15636;DHT22;7917;50.818;6.972;2023-01-26T00:24:22;-0.40;99.90
15636;DHT22;7917;50.818;6.972;2023-01-26T00:26:51;-0.50;99.90
15636;DHT22;7917;50.818;6.972;2023-01-26T00:29:18;-0.40;99.90
15636;DHT22;7917;50.818;6.972;2023-01-26T00:32:00;-0.40;99.90
15636;DHT22;7917;50.818;6.972;2023-01-26T00:34:36;-0.50;99.90
15636;DHT22;7917;50.818;6.972;2023-01-26T00:37:08;-0.50;99.90
15636;DHT22;7917;50.818;6.972;2023-01-26T00:39:35;-0.50;99.90
15636;DHT22;7917;50.818;6.972;2023-01-26T00:42:05;-0.60;99.90
15636;DHT22;7917;50.818;6.972;2023-01-26T00:44:31;-0.60;99.90
15636;DHT22;7917;50.818;6.972;2023-01-26T00:46:58;-0.60;99.90
15636;DHT22;7917;50.818;6.972;2023-01-26T00:49:27;-0.50;99.90
15636;DHT22;7917;50.818;6.972;2023-01-26T00:52:04;-0.70;99.90
15636;DHT22;7917;50.818;6.972;2023-01-26T00:54:35;-0.70;99.90
15636;DHT22;7917;50.818;6.972;2023-01-26T00:57:08;-0.80;99.90
15636;DHT22;7917;50.818;6.972;2023-01-26T00:59:38;-0.70;99.90
15636;DHT22;7917;50.818;6.972;2023-01-26T01:02:26;-0.70;99.90
15636;DHT22;7917;50.818;6.972;2023-01-26T01:04:54;-0.60;99.90
15636;DHT22;7917;50.818;6.972;2023-01-26T01:07:21;-0.70;99.90
15636;DHT22;7917;50.818;6.972;2023-01-26T01:09:48;-0.70;99.90
15636;DHT22;7917;50.818;6.972;2023-01-26T01:12:16;-0.70;99.90
15636;DHT22;7917;50.818;6.972;2023-01-26T01:14:51;-0.70;99.90
15636;DHT22;7917;50.818;6.972;2023-01-26T01:17:18;-0.80;99.90
15636;DHT22;7917;50.818;6.972;2023-01-26T01:20:15;-0.80;99.90
15636;DHT22;7917;50.818;6.972;2023-01-26T01:22:42;-0.80;99.90
15636;DHT22;7917;50.818;6.972;2023-01-26T01:28:29;-0.70;99.90
15636;DHT22;7917;50.818;6.972;2023-01-26T01:31:15;-0.70;99.90
15636;DHT22;7917;50.818;6.972;2023-01-26T01:34:27;-0.80;99.90
15636;DHT22;7917;50.818;6.972;2023-01-26T01:37:14;-0.80;99.90
15636;DHT22;7917;50.818;6.972;2023-01-26T01:39:41;-0.80;99.90
15636;DHT22;7917;50.818;6.972;2023-01-26T01:42:07;-0.80;99.90
15636;DHT22;7917;50.818;6.972;2023-01-26T01:44:37;-0.90;99.90
15636;DHT22;7917;50.818;6.972;2023-01-26T01:47:23;-0.90;99.90
15636;DHT22;7917;50.818;6.972;2023-01-26T01:49:53;-0.80;99.90
15636;DHT22;7917;50.818;6.972;2023-01-26T01:52:57;-0.90;99.90
15636;DHT22;7917;50.818;6.972;2023-01-26T01:56:14;-0.90;99.90
15636;DHT22;7917;50.818;6.972;2023-01-26T01:59:27;-0.90;99.90
15636;DHT22;7917;50.818;6.972;2023-01-26T02:02:25;-0.90;99.90
15636;DHT22;7917;50.818;6.972;2023-01-26T02:05:46;-0.90;99.90
15636;DHT22;7917;50.818;6.972;2023-01-26T02:08:39;-0.90;99.90
15636;DHT22;7917;50.818;6.972;2023-01-26T02:11:10;-0.90;99.90
15636;DHT22;7917;50.818;6.972;2023-01-26T02:13:40;-0.90;99.90
15636;DHT22;7917;50.818;6.972;2023-01-26T02:16:09;-0.90;99.90
15636;DHT22;7917;50.818;6.972;2023-01-26T02:19:11;-0.80;99.90
15636;DHT22;7917;50.818;6.972;2023-01-26T02:21:42;-0.90;99.90
15636;DHT22;7917;50.818;6.972;2023-01-26T02:24:15;-0.90;99.90
15636;DHT22;7917;50.818;6.972;2023-01-26T02:26:56;-0.90;99.90
15636;DHT22;7917;50.818;6.972;2023-01-26T02:30:05;-1.00;99.90
15636;DHT22;7917;50.818;6.972;2023-01-26T02:32:34;-0.90;99.90
15636;DHT22;7917;50.818;6.972;2023-01-26T02:35:30;-0.90;99.90
15636;DHT22;7917;50.818;6.972;2023-01-26T02:38:14;-1.00;99.90
15636;DHT22;7917;50.818;6.972;2023-01-26T02:40:45;-1.00;99.90
15636;DHT22;7917;50.818;6.972;2023-01-26T02:43:33;-1.00;99.90
15636;DHT22;7917;50.818;6.972;2023-01-26T02:46:01;-1.00;99.90
15636;DHT22;7917;50.818;6.972;2023-01-26T02:48:29;-1.00;99.90
15636;DHT22;7917;50.818;6.972;2023-01-26T02:51:18;-1.00;99.90
15636;DHT22;7917;50.818;6.972;2023-01-26T02:53:44;-1.00;99.90
15636;DHT22;7917;50.818;6.972;2023-01-26T02:56:13;-1.00;99.90
15636;DHT22;7917;50.818;6.972;2023-01-26T02:59:10;-1.00;99.90
15636;DHT22;7917;50.818;6.972;2023-01-26T03:01:38;-1.00;99.90
15636;DHT22;7917;50.818;6.972;2023-01-26T03:04:33;-1.00;99.90
15636;DHT22;7917;50.818;6.972;2023-01-26T03:07:00;-1.00;99.90
15636;DHT22;7917;50.818;6.972;2023-01-26T03:09:28;-0.90;99.90
15636;DHT22;7917;50.818;6.972;2023-01-26T03:12:36;-0.90;99.90
15636;DHT22;7917;50.818;6.972;2023-01-26T03:15:37;-0.90;99.90
15636;DHT22;7917;50.818;6.972;2023-01-26T03:18:27;-0.90;99.90
15636;DHT22;7917;50.818;6.972;2023-01-26T03:21:33;-0.90;99.90
15636;DHT22;7917;50.818;6.972;2023-01-26T03:24:57;-0.90;99.90
15636;DHT22;7917;50.818;6.972;2023-01-26T03:27:45;-0.90;99.90
15636;DHT22;7917;50.818;6.972;2023-01-26T03:30:31;-0.90;99.90
15636;DHT22;7917;50.818;6.972;2023-01-26T03:32:59;-1.00;99.90
15636;DHT22;7917;50.818;6.972;2023-01-26T03:35:26;-0.90;99.90
15636;DHT22;7917;50.818;6.972;2023-01-26T03:38:27;-0.90;99.90
15636;DHT22;7917;50.818;6.972;2023-01-26T03:41:06;-0.90;99.90
15636;DHT22;7917;50.818;6.972;2023-01-26T03:48:08;-0.90;99.90
15636;DHT22;7917;50.818;6.972;2023-01-26T03:50:54;-1.00;99.90
15636;DHT22;7917;50.818;6.972;2023-01-26T03:53:38;-1.00;99.90
15636;DHT22;7917;50.818;6.972;2023-01-26T03:56:33;-1.00;99.90
15636;DHT22;7917;50.818;6.972;2023-01-26T03:59:20;-1.00;99.90
15636;DHT22;7917;50.818;6.972;2023-01-26T04:02:04;-1.00;99.90
15636;DHT22;7917;50.818;6.972;2023-01-26T04:04:49;-1.00;99.90
15636;DHT22;7917;50.818;6.972;2023-01-26T04:07:36;-1.00;99.90
15636;DHT22;7917;50.818;6.972;2023-01-26T04:10:31;-1.10;99.90
15636;DHT22;7917;50.818;6.972;2023-01-26T04:13:06;-1.10;99.90
15636;DHT22;7917;50.818;6.972;2023-01-26T04:15:51;-1.10;99.90
15636;DHT22;7917;50.818;6.972;2023-01-26T04:18:36;-1.10;99.90
15636;DHT22;7917;50.818;6.972;2023-01-26T04:21:21;-1.10;99.90
15636;DHT22;7917;50.818;6.972;2023-01-26T04:24:09;-1.10;99.90
15636;DHT22;7917;50.818;6.972;2023-01-26T04:26:39;-1.10;99.90
15636;DHT22;7917;50.818;6.972;2023-01-26T04:29:07;-1.20;99.90
15636;DHT22;7917;50.818;6.972;2023-01-26T04:31:36;-1.10;99.90
15636;DHT22;7917;50.818;6.972;2023-01-26T04:34:30;-1.10;99.90
15636;DHT22;7917;50.818;6.972;2023-01-26T04:37:15;-1.10;99.90
15636;DHT22;7917;50.818;6.972;2023-01-26T04:39:45;-1.10;99.90
15636;DHT22;7917;50.818;6.972;2023-01-26T04:42:12;-1.10;99.90
15636;DHT22;7917;50.818;6.972;2023-01-26T04:44:44;-1.10;99.90
15636;DHT22;7917;50.818;6.972;2023-01-26T04:47:21;-1.10;99.90
15636;DHT22;7917;50.818;6.972;2023-01-26T04:49:49;-1.10;99.90
15636;DHT22;7917;50.818;6.972;2023-01-26T04:52:16;-1.20;99.90
15636;DHT22;7917;50.818;6.972;2023-01-26T04:55:08;-1.20;99.90
15636;DHT22;7917;50.818;6.972;2023-01-26T04:58:07;-1.20;99.90
15636;DHT22;7917;50.818;6.972;2023-01-26T05:00:37;-1.20;99.90
15636;DHT22;7917;50.818;6.972;2023-01-26T05:03:31;-1.20;99.90
15636;DHT22;7917;50.818;6.972;2023-01-26T05:06:41;-1.20;99.90
15636;DHT22;7917;50.818;6.972;2023-01-26T05:09:41;-1.20;99.90
15636;DHT22;7917;50.818;6.972;2023-01-26T05:12:24;-1.20;99.90
15636;DHT22;7917;50.818;6.972;2023-01-26T05:15:02;-1.20;99.90
15636;DHT22;7917;50.818;6.972;2023-01-26T05:17:29;-1.10;99.90
15636;DHT22;7917;50.818;6.972;2023-01-26T05:20:00;-1.20;99.90
15636;DHT22;7917;50.818;6.972;2023-01-26T05:22:26;-1.20;99.90
15636;DHT22;7917;50.818;6.972;2023-01-26T05:24:57;-1.20;99.90
15636;DHT22;7917;50.818;6.972;2023-01-26T05:27:25;-1.10;99.90
15636;DHT22;7917;50.818;6.972;2023-01-26T05:30:01;-1.20;99.90
15636;DHT22;7917;50.818;6.972;2023-01-26T05:32:31;-1.10;99.90
15636;DHT22;7917;50.818;6.972;2023-01-26T05:34:58;-1.10;99.90
15636;DHT22;7917;50.818;6.972;2023-01-26T05:37:27;-1.10;99.90
15636;DHT22;7917;50.818;6.972;2023-01-26T05:39:53;-1.10;99.90
15636;DHT22;7917;50.818;6.972;2023-01-26T05:42:22;-1.10;99.90
15636;DHT22;7917;50.818;6.972;2023-01-26T05:45:16;-1.10;99.90
15636;DHT22;7917;50.818;6.972;2023-01-26T05:47:52;-1.10;99.90
15636;DHT22;7917;50.818;6.972;2023-01-26T05:50:19;-1.10;99.90
15636;DHT22;7917;50.818;6.972;2023-01-26T05:53:18;-1.10;99.90
15636;DHT22;7917;50.818;6.972;2023-01-26T05:55:44;-1.10;99.90
15636;DHT22;7917;50.818;6.972;2023-01-26T05:58:11;-1.10;99.90
15636;DHT22;7917;50.818;6.972;2023-01-26T06:00:38;-1.10;99.90
15636;DHT22;7917;50.818;6.972;2023-01-26T06:03:05;-1.10;99.90
15636;DHT22;7917;50.818;6.972;2023-01-26T06:05:51;-1.10;99.90
15636;DHT22;7917;50.818;6.972;2023-01-26T06:08:19;-1.20;99.90
15636;DHT22;7917;50.818;6.972;2023-01-26T06:11:07;-1.10;99.90
15636;DHT22;7917;50.818;6.972;2023-01-26T06:13:48;-1.10;99.90
15636;DHT22;7917;50.818;6.972;2023-01-26T06:19:08;-1.10;99.90
15636;DHT22;7917;50.818;6.972;2023-01-26T06:21:35;-1.10;99.90
15636;DHT22;7917;50.818;6.972;2023-01-26T06:24:01;-1.10;99.90
15636;DHT22;7917;50.818;6.972;2023-01-26T06:26:29;-1.10;99.90
15636;DHT22;7917;50.818;6.972;2023-01-26T06:28:55;-1.10;99.90
15636;DHT22;7917;50.818;6.972;2023-01-26T06:31:43;-1.10;99.90
15636;DHT22;7917;50.818;6.972;2023-01-26T06:34:19;-1.10;99.90
15636;DHT22;7917;50.818;6.972;2023-01-26T06:36:52;-1.10;99.90
15636;DHT22;7917;50.818;6.972;2023-01-26T06:39:34;-1.00;99.90
15636;DHT22;7917;50.818;6.972;2023-01-26T06:42:29;-1.00;99.90
15636;DHT22;7917;50.818;6.972;2023-01-26T06:44:56;-1.00;99.90
15636;DHT22;7917;50.818;6.972;2023-01-26T06:47:24;-1.00;99.90
15636;DHT22;7917;50.818;6.972;2023-01-26T06:49:57;-1.00;99.90
15636;DHT22;7917;50.818;6.972;2023-01-26T06:52:59;-1.00;99.90
15636;DHT22;7917;50.818;6.972;2023-01-26T06:55:33;-1.00;99.90
15636;DHT22;7917;50.818;6.972;2023-01-26T06:58:00;-1.00;99.90
15636;DHT22;7917;50.818;6.972;2023-01-26T07:00:26;-1.00;99.90
15636;DHT22;7917;50.818;6.972;2023-01-26T07:02:54;-1.00;99.90
15636;DHT22;7917;50.818;6.972;2023-01-26T07:05:23;-1.00;99.90
15636;DHT22;7917;50.818;6.972;2023-01-26T07:07:49;-1.00;99.90
15636;DHT22;7917;50.818;6.972;2023-01-26T07:10:17;-1.00;99.90
15636;DHT22;7917;50.818;6.972;2023-01-26T07:12:45;-0.90;99.90
15636;DHT22;7917;50.818;6.972;2023-01-26T07:15:16;-0.90;99.90
15636;DHT22;7917;50.818;6.972;2023-01-26T07:18:03;-0.90;99.90
15636;DHT22;7917;50.818;6.972;2023-01-26T07:20:44;-0.90;99.90
15636;DHT22;7917;50.818;6.972;2023-01-26T07:23:11;-0.90;99.90
15636;DHT22;7917;50.818;6.972;2023-01-26T07:25:37;-0.90;99.90
15636;DHT22;7917;50.818;6.972;2023-01-26T07:28:08;-0.90;99.90
15636;DHT22;7917;50.818;6.972;2023-01-26T07:30:36;-0.90;99.90
15636;DHT22;7917;50.818;6.972;2023-01-26T07:36:26;-0.90;99.90
15636;DHT22;7917;50.818;6.972;2023-01-26T07:38:53;-0.80;99.90
15636;DHT22;7917;50.818;6.972;2023-01-26T07:44:30;-0.80;99.90
15636;DHT22;7917;50.818;6.972;2023-01-26T07:47:00;-0.80;99.90
15636;DHT22;7917;50.818;6.972;2023-01-26T07:50:00;-0.80;99.90
15636;DHT22;7917;50.818;6.972;2023-01-26T07:52:42;-0.80;99.90
15636;DHT22;7917;50.818;6.972;2023-01-26T07:55:39;-0.70;99.90
15636;DHT22;7917;50.818;6.972;2023-01-26T07:58:10;-0.60;99.90
15636;DHT22;7917;50.818;6.972;2023-01-26T08:00:40;-0.70;99.90
15636;DHT22;7917;50.818;6.972;2023-01-26T08:03:07;-0.70;99.90
15636;DHT22;7917;50.818;6.972;2023-01-26T08:05:51;-0.70;99.90
15636;DHT22;7917;50.818;6.972;2023-01-26T08:08:19;-0.60;99.90
15636;DHT22;7917;50.818;6.972;2023-01-26T08:10:45;-0.60;99.90
15636;DHT22;7917;50.818;6.972;2023-01-26T08:13:12;-0.60;99.90
15636;DHT22;7917;50.818;6.972;2023-01-26T08:15:38;-0.50;99.90
15636;DHT22;7917;50.818;6.972;2023-01-26T08:18:04;-0.50;99.90
15636;DHT22;7917;50.818;6.972;2023-01-26T08:20:51;-0.50;99.90
15636;DHT22;7917;50.818;6.972;2023-01-26T08:23:20;-0.50;99.90
15636;DHT22;7917;50.818;6.972;2023-01-26T08:25:48;-0.50;99.90
15636;DHT22;7917;50.818;6.972;2023-01-26T08:28:16;-0.50;99.90
15636;DHT22;7917;50.818;6.972;2023-01-26T08:30:43;-0.50;99.90
15636;DHT22;7917;50.818;6.972;2023-01-26T08:33:11;-0.40;99.90
15636;DHT22;7917;50.818;6.972;2023-01-26T08:35:38;-0.40;99.90
15636;DHT22;7917;50.818;6.972;2023-01-26T08:38:11;-0.40;99.90
15636;DHT22;7917;50.818;6.972;2023-01-26T08:40:38;-0.40;99.90
15636;DHT22;7917;50.818;6.972;2023-01-26T08:43:04;-0.30;99.90
15636;DHT22;7917;50.818;6.972;2023-01-26T08:45:31;-0.30;99.90
15636;DHT22;7917;50.818;6.972;2023-01-26T08:47:59;-0.30;99.90
15636;DHT22;7917;50.818;6.972;2023-01-26T08:50:26;-0.20;99.90
15636;DHT22;7917;50.818;6.972;2023-01-26T08:52:54;-0.20;99.90
15636;DHT22;7917;50.818;6.972;2023-01-26T08:55:25;-0.10;99.90
15636;DHT22;7917;50.818;6.972;2023-01-26T08:57:54;0.00;99.90
15636;DHT22;7917;50.818;6.972;2023-01-26T09:00:31;0.00;99.90
15636;DHT22;7917;50.818;6.972;2023-01-26T09:03:05;0.00;99.90
15636;DHT22;7917;50.818;6.972;2023-01-26T09:05:42;0.10;99.90
15636;DHT22;7917;50.818;6.972;2023-01-26T09:08:11;0.00;99.90
15636;DHT22;7917;50.818;6.972;2023-01-26T09:10:37;0.00;99.90
15636;DHT22;7917;50.818;6.972;2023-01-26T09:13:10;0.00;99.90
15636;DHT22;7917;50.818;6.972;2023-01-26T09:15:47;0.10;99.90
15636;DHT22;7917;50.818;6.972;2023-01-26T09:18:14;0.10;99.90
15636;DHT22;7917;50.818;6.972;2023-01-26T09:20:40;0.20;99.90
15636;DHT22;7917;50.818;6.972;2023-01-26T09:23:07;0.10;99.90
15636;DHT22;7917;50.818;6.972;2023-01-26T09:25:40;0.20;99.90
15636;DHT22;7917;50.818;6.972;2023-01-26T09:28:07;0.20;99.90
15636;DHT22;7917;50.818;6.972;2023-01-26T09:30:38;0.20;99.90
15636;DHT22;7917;50.818;6.972;2023-01-26T09:33:05;0.30;99.90
15636;DHT22;7917;50.818;6.972;2023-01-26T09:35:31;0.40;99.90
15636;DHT22;7917;50.818;6.972;2023-01-26T09:37:58;0.50;99.90
15636;DHT22;7917;50.818;6.972;2023-01-26T09:40:35;0.50;99.90
15636;DHT22;7917;50.818;6.972;2023-01-26T09:43:24;0.50;99.90
15636;DHT22;7917;50.818;6.972;2023-01-26T09:46:11;0.50;99.90
15636;DHT22;7917;50.818;6.972;2023-01-26T09:48:44;0.30;99.90
15636;DHT22;7917;50.818;6.972;2023-01-26T09:51:28;0.30;99.90
15636;DHT22;7917;50.818;6.972;2023-01-26T09:54:03;0.40;99.90
15636;DHT22;7917;50.818;6.972;2023-01-26T09:56:39;0.40;99.90
15636;DHT22;7917;50.818;6.972;2023-01-26T10:02:36;0.50;99.90
15636;DHT22;7917;50.818;6.972;2023-01-26T10:05:10;0.50;99.90
15636;DHT22;7917;50.818;6.972;2023-01-26T10:07:41;0.50;99.90
15636;DHT22;7917;50.818;6.972;2023-01-26T10:10:14;0.60;99.90
15636;DHT22;7917;50.818;6.972;2023-01-26T10:12:42;0.60;99.90
15636;DHT22;7917;50.818;6.972;2023-01-26T10:15:21;0.60;99.90
15636;DHT22;7917;50.818;6.972;2023-01-26T10:17:51;0.60;99.90
15636;DHT22;7917;50.818;6.972;2023-01-26T10:20:26;0.60;99.90
15636;DHT22;7917;50.818;6.972;2023-01-26T10:22:57;0.60;99.90
15636;DHT22;7917;50.818;6.972;2023-01-26T10:25:35;0.60;99.90
15636;DHT22;7917;50.818;6.972;2023-01-26T10:28:10;0.70;99.90
15636;DHT22;7917;50.818;6.972;2023-01-26T10:30:39;0.80;99.90
15636;DHT22;7917;50.818;6.972;2023-01-26T10:33:12;0.80;99.90
15636;DHT22;7917;50.818;6.972;2023-01-26T10:35:39;0.70;99.90
15636;DHT22;7917;50.818;6.972;2023-01-26T10:38:37;0.80;99.90
15636;DHT22;7917;50.818;6.972;2023-01-26T10:41:06;0.70;99.90
15636;DHT22;7917;50.818;6.972;2023-01-26T10:43:52;0.80;99.90
15636;DHT22;7917;50.818;6.972;2023-01-26T10:46:26;0.80;99.90
15636;DHT22;7917;50.818;6.972;2023-01-26T10:52:21;0.90;99.90
15636;DHT22;7917;50.818;6.972;2023-01-26T10:55:36;1.00;99.90
15636;DHT22;7917;50.818;6.972;2023-01-26T10:58:04;1.00;99.90
15636;DHT22;7917;50.818;6.972;2023-01-26T11:00:40;0.90;99.90
15636;DHT22;7917;50.818;6.972;2023-01-26T11:03:19;0.90;99.90
15636;DHT22;7917;50.818;6.972;2023-01-26T11:06:04;0.80;99.90
15636;DHT22;7917;50.818;6.972;2023-01-26T11:08:42;0.80;99.90
15636;DHT22;7917;50.818;6.972;2023-01-26T11:14:21;0.80;99.90
15636;DHT22;7917;50.818;6.972;2023-01-26T11:16:56;0.80;99.90
15636;DHT22;7917;50.818;6.972;2023-01-26T11:20:23;0.80;99.90
15636;DHT22;7917;50.818;6.972;2023-01-26T11:22:53;0.80;99.90
15636;DHT22;7917;50.818;6.972;2023-01-26T11:25:50;0.80;99.90
15636;DHT22;7917;50.818;6.972;2023-01-26T11:28:50;0.80;99.90
15636;DHT22;7917;50.818;6.972;2023-01-26T11:31:36;0.90;99.90
15636;DHT22;7917;50.818;6.972;2023-01-26T11:34:20;0.90;99.90
15636;DHT22;7917;50.818;6.972;2023-01-26T11:36:58;0.90;99.90
15636;DHT22;7917;50.818;6.972;2023-01-26T11:39:35;0.90;99.90
15636;DHT22;7917;50.818;6.972;2023-01-26T11:42:22;1.00;99.90
15636;DHT22;7917;50.818;6.972;2023-01-26T11:51:14;1.10;99.90
15636;DHT22;7917;50.818;6.972;2023-01-26T11:54:08;1.00;99.90
15636;DHT22;7917;50.818;6.972;2023-01-26T11:59:40;1.10;99.90
15636;DHT22;7917;50.818;6.972;2023-01-26T12:02:35;1.30;99.90
15636;DHT22;7917;50.818;6.972;2023-01-26T12:05:24;1.30;99.90
15636;DHT22;7917;50.818;6.972;2023-01-26T12:07:59;1.30;99.90
15636;DHT22;7917;50.818;6.972;2023-01-26T12:11:01;1.30;99.90
15636;DHT22;7917;50.818;6.972;2023-01-26T12:14:10;1.50;99.90
15636;DHT22;7917;50.818;6.972;2023-01-26T12:17:17;1.40;99.90
15636;DHT22;7917;50.818;6.972;2023-01-26T12:23:26;1.30;99.90
15636;DHT22;7917;50.818;6.972;2023-01-26T12:26:14;1.30;99.90
15636;DHT22;7917;50.818;6.972;2023-01-26T12:31:53;1.20;99.90
15636;DHT22;7917;50.818;6.972;2023-01-26T12:34:30;1.10;99.90
15636;DHT22;7917;50.818;6.972;2023-01-26T12:37:38;1.10;99.90
15636;DHT22;7917;50.818;6.972;2023-01-26T12:40:49;1.10;99.90
15636;DHT22;7917;50.818;6.972;2023-01-26T12:43:52;1.10;99.90
15636;DHT22;7917;50.818;6.972;2023-01-26T12:46:29;1.00;99.90
15636;DHT22;7917;50.818;6.972;2023-01-26T12:49:21;1.10;99.90
15636;DHT22;7917;50.818;6.972;2023-01-26T12:52:21;1.10;99.90
15636;DHT22;7917;50.818;6.972;2023-01-26T12:54:56;1.20;99.90
15636;DHT22;7917;50.818;6.972;2023-01-26T12:57:32;1.10;99.90
15636;DHT22;7917;50.818;6.972;2023-01-26T13:03:17;1.10;99.90
15636;DHT22;7917;50.818;6.972;2023-01-26T13:05:56;1.10;99.90
15636;DHT22;7917;50.818;6.972;2023-01-26T13:08:47;1.10;99.90
15636;DHT22;7917;50.818;6.972;2023-01-26T13:11:47;1.10;99.90
15636;DHT22;7917;50.818;6.972;2023-01-26T13:14:32;1.10;99.90
15636;DHT22;7917;50.818;6.972;2023-01-26T13:20:51;1.20;99.90
15636;DHT22;7917;50.818;6.972;2023-01-26T13:26:49;1.20;99.90
15636;DHT22;7917;50.818;6.972;2023-01-26T13:35:25;1.20;99.90
15636;DHT22;7917;50.818;6.972;2023-01-26T13:37:58;1.30;99.90
15636;DHT22;7917;50.818;6.972;2023-01-26T13:40:32;1.30;99.90
15636;DHT22;7917;50.818;6.972;2023-01-26T13:43:05;1.30;99.90
15636;DHT22;7917;50.818;6.972;2023-01-26T13:45:36;1.30;99.90
15636;DHT22;7917;50.818;6.972;2023-01-26T13:48:31;1.20;99.90
15636;DHT22;7917;50.818;6.972;2023-01-26T13:51:00;1.20;99.90
15636;DHT22;7917;50.818;6.972;2023-01-26T13:53:38;1.30;99.90
15636;DHT22;7917;50.818;6.972;2023-01-26T13:56:23;1.30;99.90
15636;DHT22;7917;50.818;6.972;2023-01-26T13:58:51;1.30;99.90
15636;DHT22;7917;50.818;6.972;2023-01-26T14:01:19;1.30;99.90
15636;DHT22;7917;50.818;6.972;2023-01-26T14:03:45;1.30;99.90
15636;DHT22;7917;50.818;6.972;2023-01-26T14:06:14;1.30;99.90
15636;DHT22;7917;50.818;6.972;2023-01-26T14:08:46;1.30;99.90
15636;DHT22;7917;50.818;6.972;2023-01-26T14:11:36;1.40;99.90
15636;DHT22;7917;50.818;6.972;2023-01-26T14:14:38;1.30;99.90
15636;DHT22;7917;50.818;6.972;2023-01-26T14:19:54;1.30;99.90
15636;DHT22;7917;50.818;6.972;2023-01-26T14:22:27;1.40;99.90
15636;DHT22;7917;50.818;6.972;2023-01-26T14:24:54;1.40;99.90
15636;DHT22;7917;50.818;6.972;2023-01-26T14:27:31;1.40;99.90
15636;DHT22;7917;50.818;6.972;2023-01-26T14:30:00;1.30;99.90
15636;DHT22;7917;50.818;6.972;2023-01-26T14:32:40;1.30;99.90
15636;DHT22;7917;50.818;6.972;2023-01-26T14:35:21;1.30;99.90
15636;DHT22;7917;50.818;6.972;2023-01-26T14:37:49;1.40;99.90
15636;DHT22;7917;50.818;6.972;2023-01-26T14:40:21;1.40;99.90
15636;DHT22;7917;50.818;6.972;2023-01-26T14:42:51;1.40;99.90
15636;DHT22;7917;50.818;6.972;2023-01-26T14:45:30;1.30;99.90
15636;DHT22;7917;50.818;6.972;2023-01-26T14:47:59;1.30;99.90
15636;DHT22;7917;50.818;6.972;2023-01-26T14:50:30;1.30;99.90
15636;DHT22;7917;50.818;6.972;2023-01-26T14:53:00;1.30;99.90
15636;DHT22;7917;50.818;6.972;2023-01-26T14:55:30;1.40;99.90
15636;DHT22;7917;50.818;6.972;2023-01-26T14:58:00;1.40;99.90
15636;DHT22;7917;50.818;6.972;2023-01-26T15:00:32;1.40;99.90
15636;DHT22;7917;50.818;6.972;2023-01-26T15:03:03;1.40;99.90
15636;DHT22;7917;50.818;6.972;2023-01-26T15:05:32;1.40;99.90
15636;DHT22;7917;50.818;6.972;2023-01-26T15:08:00;1.40;99.90
15636;DHT22;7917;50.818;6.972;2023-01-26T15:10:34;1.40;99.90
15636;DHT22;7917;50.818;6.972;2023-01-26T15:13:05;1.40;99.90
15636;DHT22;7917;50.818;6.972;2023-01-26T15:15:40;1.40;99.90
15636;DHT22;7917;50.818;6.972;2023-01-26T15:18:18;1.50;99.90
15636;DHT22;7917;50.818;6.972;2023-01-26T15:20:54;1.50;99.90
15636;DHT22;7917;50.818;6.972;2023-01-26T15:23:29;1.50;99.90
15636;DHT22;7917;50.818;6.972;2023-01-26T15:26:07;1.60;99.90
15636;DHT22;7917;50.818;6.972;2023-01-26T15:28:36;1.60;99.90
15636;DHT22;7917;50.818;6.972;2023-01-26T15:31:04;1.50;99.90
15636;DHT22;7917;50.818;6.972;2023-01-26T15:33:45;1.60;99.90
15636;DHT22;7917;50.818;6.972;2023-01-26T15:36:23;1.60;99.90
15636;DHT22;7917;50.818;6.972;2023-01-26T15:38:53;1.60;99.90
15636;DHT22;7917;50.818;6.972;2023-01-26T15:41:21;1.60;99.90
15636;DHT22;7917;50.818;6.972;2023-01-26T15:43:47;1.60;99.90
15636;DHT22;7917;50.818;6.972;2023-01-26T15:46:14;1.50;99.90
15636;DHT22;7917;50.818;6.972;2023-01-26T15:48:41;1.50;99.90
15636;DHT22;7917;50.818;6.972;2023-01-26T15:51:11;1.60;99.90
15636;DHT22;7917;50.818;6.972;2023-01-26T15:53:38;1.60;99.90
15636;DHT22;7917;50.818;6.972;2023-01-26T15:56:07;1.60;99.90
15636;DHT22;7917;50.818;6.972;2023-01-26T15:58:36;1.60;99.90
15636;DHT22;7917;50.818;6.972;2023-01-26T16:01:03;1.60;99.90
15636;DHT22;7917;50.818;6.972;2023-01-26T16:03:31;1.60;99.90
15636;DHT22;7917;50.818;6.972;2023-01-26T16:05:58;1.70;99.90
15636;DHT22;7917;50.818;6.972;2023-01-26T16:08:25;1.60;99.90
15636;DHT22;7917;50.818;6.972;2023-01-26T16:10:51;1.70;99.90
15636;DHT22;7917;50.818;6.972;2023-01-26T16:13:21;1.60;99.90
15636;DHT22;7917;50.818;6.972;2023-01-26T16:15:53;1.70;99.90
15636;DHT22;7917;50.818;6.972;2023-01-26T16:18:22;1.70;99.90
15636;DHT22;7917;50.818;6.972;2023-01-26T16:20:49;1.70;99.90
15636;DHT22;7917;50.818;6.972;2023-01-26T16:23:19;1.70;99.90
15636;DHT22;7917;50.818;6.972;2023-01-26T16:25:47;1.70;99.90
15636;DHT22;7917;50.818;6.972;2023-01-26T16:28:17;1.70;99.90
15636;DHT22;7917;50.818;6.972;2023-01-26T16:30:47;1.70;99.90
15636;DHT22;7917;50.818;6.972;2023-01-26T16:33:17;1.70;99.90
15636;DHT22;7917;50.818;6.972;2023-01-26T16:35:54;1.70;99.90
15636;DHT22;7917;50.818;6.972;2023-01-26T16:38:29;1.70;99.90
15636;DHT22;7917;50.818;6.972;2023-01-26T16:40:56;1.70;99.90
15636;DHT22;7917;50.818;6.972;2023-01-26T16:43:24;1.80;99.90
15636;DHT22;7917;50.818;6.972;2023-01-26T16:45:57;1.70;99.90
15636;DHT22;7917;50.818;6.972;2023-01-26T16:48:24;1.80;99.90
15636;DHT22;7917;50.818;6.972;2023-01-26T16:50:55;1.80;99.90
15636;DHT22;7917;50.818;6.972;2023-01-26T16:53:25;1.80;99.90
15636;DHT22;7917;50.818;6.972;2023-01-26T16:55:55;1.80;99.90
15636;DHT22;7917;50.818;6.972;2023-01-26T16:58:22;1.90;99.90
15636;DHT22;7917;50.818;6.972;2023-01-26T17:00:58;1.90;99.90
15636;DHT22;7917;50.818;6.972;2023-01-26T17:03:25;2.00;99.90
15636;DHT22;7917;50.818;6.972;2023-01-26T17:06:09;1.90;99.90
15636;DHT22;7917;50.818;6.972;2023-01-26T17:11:20;1.90;99.90
15636;DHT22;7917;50.818;6.972;2023-01-26T17:13:51;1.90;99.90
15636;DHT22;7917;50.818;6.972;2023-01-26T17:16:22;1.90;99.90
15636;DHT22;7917;50.818;6.972;2023-01-26T17:19:00;1.90;99.90
15636;DHT22;7917;50.818;6.972;2023-01-26T17:21:48;2.00;99.90
15636;DHT22;7917;50.818;6.972;2023-01-26T17:24:15;2.00;99.90
15636;DHT22;7917;50.818;6.972;2023-01-26T17:26:42;2.10;99.90
15636;DHT22;7917;50.818;6.972;2023-01-26T17:29:28;2.10;99.90
15636;DHT22;7917;50.818;6.972;2023-01-26T17:31:54;2.10;99.90
15636;DHT22;7917;50.818;6.972;2023-01-26T17:34:21;2.10;99.90
15636;DHT22;7917;50.818;6.972;2023-01-26T17:36:49;2.20;99.90
15636;DHT22;7917;50.818;6.972;2023-01-26T17:39:16;2.20;99.90
15636;DHT22;7917;50.818;6.972;2023-01-26T17:41:52;2.20;99.90
15636;DHT22;7917;50.818;6.972;2023-01-26T17:44:27;2.20;99.90
15636;DHT22;7917;50.818;6.972;2023-01-26T17:47:09;2.20;99.90
15636;DHT22;7917;50.818;6.972;2023-01-26T17:49:37;2.20;99.90
15636;DHT22;7917;50.818;6.972;2023-01-26T17:52:05;2.30;99.90
15636;DHT22;7917;50.818;6.972;2023-01-26T17:54:33;2.30;99.90
15636;DHT22;7917;50.818;6.972;2023-01-26T17:57:05;2.30;99.90
15636;DHT22;7917;50.818;6.972;2023-01-26T17:59:50;2.40;99.90